createdAt,value
2022-09-16T00:00:55.413Z,3.15
2022-09-16T00:01:58.573Z,2.78
2022-09-16T00:03:01.962Z,3.58
2022-09-16T00:04:04.868Z,3.30
2022-09-16T00:05:08.683Z,2.80
2022-09-16T00:06:25.874Z,3.53
2022-09-16T00:07:30.421Z,3.58
2022-09-16T00:08:33.532Z,3.60
2022-09-16T00:09:38.418Z,2.95
2022-09-16T00:10:43.019Z,3.20
2022-09-16T00:11:45.863Z,3.08
2022-09-16T00:12:50.075Z,3.38
2022-09-16T00:13:53.249Z,3.30
2022-09-16T00:14:56.414Z,3.30
2022-09-16T00:15:59.312Z,3.60
2022-09-16T00:17:02.384Z,3.30
2022-09-16T00:18:05.452Z,3.22
2022-09-16T00:19:09.537Z,3.00
2022-09-16T00:20:12.529Z,3.30
2022-09-16T00:21:15.567Z,2.92
2022-09-16T00:22:19.191Z,3.20
2022-09-16T00:23:22.158Z,3.50
2022-09-16T00:24:25.117Z,3.45
2022-09-16T00:25:28.034Z,3.17
2022-09-16T00:26:31.562Z,3.28
2022-09-16T00:27:34.727Z,3.83
2022-09-16T00:28:37.837Z,3.08
2022-09-16T00:29:40.993Z,3.50
2022-09-16T00:30:43.949Z,3.25
2022-09-16T00:31:47.110Z,3.63
2022-09-16T00:32:50.088Z,3.35
2022-09-16T00:33:52.958Z,4.28
2022-09-16T00:34:55.832Z,2.92
2022-09-16T00:36:15.210Z,3.40
2022-09-16T00:37:18.059Z,2.97
2022-09-16T00:38:21.172Z,3.08
2022-09-16T00:39:24.138Z,3.58
2022-09-16T00:40:27.276Z,3.13
2022-09-16T00:41:34.844Z,3.67
2022-09-16T00:42:41.266Z,3.50
2022-09-16T00:43:51.197Z,3.42
2022-09-16T00:45:15.837Z,3.20
2022-09-16T00:46:39.409Z,3.38
2022-09-16T00:47:53.274Z,3.40
2022-09-16T00:49:01.022Z,3.80
2022-09-16T00:50:13.030Z,2.92
2022-09-16T00:51:17.142Z,2.72
2022-09-16T00:52:20.442Z,2.80
2022-09-16T00:53:34.448Z,3.65
2022-09-16T00:54:39.821Z,2.50
2022-09-16T00:55:44.953Z,3.15
2022-09-16T00:56:54.755Z,2.78
2022-09-16T00:58:08.894Z,2.65
2022-09-16T00:59:20.382Z,2.92
2022-09-16T01:00:23.273Z,2.90
2022-09-16T01:01:26.546Z,2.97
2022-09-16T01:02:29.625Z,2.95
2022-09-16T01:03:44.924Z,2.47
2022-09-16T01:05:08.388Z,3.00
2022-09-16T01:06:14.080Z,2.30
2022-09-16T01:07:24.644Z,2.70
2022-09-16T01:08:27.812Z,2.38
2022-09-16T01:09:31.775Z,3.28
2022-09-16T01:10:34.838Z,2.80
2022-09-16T01:11:37.892Z,2.60
2022-09-16T01:12:46.532Z,3.28
2022-09-16T01:13:50.517Z,3.25
2022-09-16T01:14:53.450Z,2.60
2022-09-16T01:16:11.217Z,2.53
2022-09-16T01:17:50.690Z,2.88
2022-09-16T01:18:56.215Z,3.50
2022-09-16T01:20:29.923Z,3.40
2022-09-16T01:21:47.803Z,2.97
2022-09-16T01:23:17.927Z,3.00
2022-09-16T01:24:43.643Z,3.10
2022-09-16T01:26:30.068Z,3.08
2022-09-16T01:28:01.336Z,2.90
2022-09-16T01:29:53.369Z,2.95
2022-09-16T01:31:36.585Z,3.17
2022-09-16T01:33:20.660Z,3.05
2022-09-16T01:34:44.363Z,3.10
2022-09-16T01:36:00.693Z,3.20
2022-09-16T01:37:40.532Z,3.22
2022-09-16T01:39:08.171Z,3.00
2022-09-16T01:40:46.216Z,3.30
2022-09-16T01:42:37.080Z,3.20
2022-09-16T01:44:27.072Z,3.20
2022-09-16T01:45:50.701Z,3.22
2022-09-16T01:47:21.979Z,3.13
2022-09-16T01:48:55.070Z,3.22
2022-09-16T01:50:18.712Z,2.80
2022-09-16T01:51:28.746Z,2.78
2022-09-16T01:53:23.877Z,3.07
2022-09-16T01:54:32.831Z,2.97
2022-09-16T01:55:52.444Z,3.05
2022-09-16T01:57:24.985Z,3.05
2022-09-16T01:59:00.205Z,2.90
2022-09-16T02:00:11.389Z,2.20
2022-09-16T02:01:28.183Z,2.80
2022-09-16T02:02:54.672Z,3.22
2022-09-16T02:04:05.909Z,3.15
2022-09-16T02:05:37.334Z,3.05
2022-09-16T02:06:43.957Z,3.28
2022-09-16T02:07:55.827Z,2.85
2022-09-16T02:09:18.922Z,2.42
2022-09-16T02:10:44.914Z,3.30
2022-09-16T02:11:52.177Z,3.00
2022-09-16T02:13:11.615Z,2.67
2022-09-16T02:14:30.302Z,3.22
2022-09-16T02:15:34.367Z,2.33
2022-09-16T02:16:49.175Z,2.30
2022-09-16T02:18:09.671Z,2.42
2022-09-16T02:19:24.369Z,2.13
2022-09-16T02:20:31.814Z,2.90
2022-09-16T02:21:45.431Z,2.45
2022-09-16T02:22:56.271Z,2.28
2022-09-16T02:24:05.660Z,2.65
2022-09-16T02:25:11.659Z,2.35
2022-09-16T02:26:21.083Z,2.22
2022-09-16T02:27:24.437Z,2.10
2022-09-16T02:28:38.990Z,1.92
2022-09-16T02:29:56.347Z,2.42
2022-09-16T02:31:06.156Z,2.67
2022-09-16T02:32:11.622Z,2.42
2022-09-16T02:33:16.951Z,2.22
2022-09-16T02:34:31.298Z,1.98
2022-09-16T02:35:38.589Z,2.03
2022-09-16T02:36:45.793Z,1.95
2022-09-16T02:38:01.790Z,2.33
2022-09-16T02:39:13.894Z,2.28
2022-09-16T02:40:32.425Z,1.77
2022-09-16T02:41:38.927Z,3.00
2022-09-16T02:42:41.883Z,2.20
2022-09-16T02:43:46.023Z,2.28
2022-09-16T02:44:49.198Z,2.30
2022-09-16T02:46:06.969Z,1.98
2022-09-16T02:47:17.523Z,2.20
2022-09-16T02:48:40.463Z,1.80
2022-09-16T02:50:43.534Z,1.95
2022-09-16T02:52:15.624Z,1.98
2022-09-16T02:53:38.205Z,1.98
2022-09-16T02:55:21.639Z,1.80
2022-09-16T02:56:39.418Z,2.08
2022-09-16T02:57:42.813Z,1.98
2022-09-16T02:58:45.824Z,1.85
2022-09-16T02:59:49.556Z,1.92
2022-09-16T03:00:55.743Z,2.17
2022-09-16T03:02:00.481Z,1.83
2022-09-16T03:03:03.953Z,2.58
2022-09-16T03:04:08.448Z,2.75
2022-09-16T03:05:11.451Z,1.98
2022-09-16T03:06:22.963Z,2.42
2022-09-16T03:07:26.896Z,2.25
2022-09-16T03:08:30.217Z,1.92
2022-09-16T03:09:38.190Z,2.15
2022-09-16T03:10:46.606Z,1.85
2022-09-16T03:12:05.471Z,2.08
2022-09-16T03:13:37.517Z,2.70
2022-09-16T03:15:27.828Z,1.73
2022-09-16T03:16:47.710Z,1.88
2022-09-16T03:18:41.488Z,2.15
2022-09-16T03:19:59.209Z,1.95
2022-09-16T03:21:21.718Z,1.95
2022-09-16T03:22:37.796Z,1.95
2022-09-16T03:24:09.871Z,2.17
2022-09-16T03:26:02.006Z,1.95
2022-09-16T03:27:32.550Z,2.35
2022-09-16T03:29:02.956Z,2.00
2022-09-16T03:30:09.126Z,2.55
2022-09-16T03:31:45.713Z,2.05
2022-09-16T03:32:56.669Z,2.15
2022-09-16T03:34:11.291Z,2.33
2022-09-16T03:35:48.904Z,2.25
2022-09-16T03:37:00.729Z,2.22
2022-09-16T03:38:05.979Z,2.38
2022-09-16T03:39:10.827Z,2.05
2022-09-16T03:40:19.262Z,2.30
2022-09-16T03:41:23.254Z,2.42
2022-09-16T03:42:26.840Z,2.35
2022-09-16T03:43:29.649Z,2.45
2022-09-16T03:44:39.209Z,2.42
2022-09-16T03:45:43.059Z,2.10
2022-09-16T03:46:46.121Z,2.35
2022-09-16T03:47:52.173Z,2.83
2022-09-16T03:48:56.776Z,2.10
2022-09-16T03:49:59.811Z,2.10
2022-09-16T03:51:02.829Z,2.50
2022-09-16T03:52:07.224Z,2.10
2022-09-16T03:53:10.268Z,2.40
2022-09-16T03:54:13.166Z,2.40
2022-09-16T03:55:17.040Z,2.38
2022-09-16T03:56:22.333Z,2.55
2022-09-16T03:57:25.362Z,2.42
2022-09-16T03:58:28.193Z,2.50
2022-09-16T03:59:31.582Z,2.47
2022-09-16T04:00:34.768Z,2.33
2022-09-16T04:01:37.719Z,2.75
2022-09-16T04:02:40.825Z,2.60
2022-09-16T04:03:43.897Z,2.30
2022-09-16T04:04:46.915Z,3.05
2022-09-16T04:05:56.504Z,2.50
2022-09-16T04:06:59.643Z,2.05
2022-09-16T04:08:02.811Z,2.35
2022-09-16T04:09:08.222Z,2.25
2022-09-16T04:10:12.568Z,2.38
2022-09-16T04:11:15.514Z,2.13
2022-09-16T04:12:18.498Z,1.92
2022-09-16T04:13:21.405Z,1.65
2022-09-16T04:14:24.319Z,1.77
2022-09-16T04:15:27.275Z,1.73
2022-09-16T04:16:31.094Z,2.10
2022-09-16T04:17:34.673Z,2.00
2022-09-16T04:18:37.841Z,2.17
2022-09-16T04:19:40.725Z,2.33
2022-09-16T04:20:43.604Z,1.67
2022-09-16T04:21:46.772Z,2.65
2022-09-16T04:22:49.894Z,2.22
2022-09-16T04:23:54.666Z,2.10
2022-09-16T04:24:58.163Z,2.13
2022-09-16T04:26:03.283Z,1.98
2022-09-16T04:27:06.477Z,2.58
2022-09-16T04:28:09.538Z,1.77
2022-09-16T04:29:12.845Z,2.13
2022-09-16T04:30:16.015Z,2.28
2022-09-16T04:31:19.183Z,2.00
2022-09-16T04:32:22.153Z,2.42
2022-09-16T04:33:32.651Z,2.38
2022-09-16T04:35:38.377Z,1.73
2022-09-16T04:36:41.296Z,2.05
2022-09-16T04:37:44.498Z,2.28
2022-09-16T04:38:49.460Z,2.80
2022-09-16T04:39:53.518Z,2.17
2022-09-16T04:41:09.613Z,2.25
2022-09-16T04:42:12.661Z,2.05
2022-09-16T04:43:15.601Z,1.73
2022-09-16T04:44:18.602Z,2.03
2022-09-16T04:45:21.443Z,2.55
2022-09-16T04:46:27.248Z,2.28
2022-09-16T04:47:30.432Z,2.80
2022-09-16T04:48:34.743Z,2.65
2022-09-16T04:49:37.787Z,2.30
2022-09-16T04:50:40.834Z,2.38
2022-09-16T04:51:43.678Z,2.58
2022-09-16T04:52:46.793Z,2.35
2022-09-16T04:53:50.517Z,2.08
2022-09-16T04:54:53.550Z,2.15
2022-09-16T04:56:15.615Z,2.08
2022-09-16T04:57:18.491Z,2.38
2022-09-16T04:58:21.847Z,2.30
2022-09-16T04:59:24.742Z,2.33
2022-09-16T05:00:27.872Z,2.60
2022-09-16T05:01:37.731Z,2.20
2022-09-16T05:02:40.813Z,2.35
2022-09-16T05:03:47.393Z,2.33
2022-09-16T05:04:50.491Z,2.28
2022-09-16T05:05:53.490Z,2.20
2022-09-16T05:06:56.745Z,2.40
2022-09-16T05:07:59.693Z,2.83
2022-09-16T05:09:04.296Z,2.00
2022-09-16T05:10:07.880Z,2.17
2022-09-16T05:11:14.593Z,1.90
2022-09-16T05:12:17.621Z,2.28
2022-09-16T05:13:21.437Z,2.42
2022-09-16T05:14:24.525Z,2.20
2022-09-16T05:15:27.534Z,2.60
2022-09-16T05:16:32.949Z,2.17
2022-09-16T05:17:51.958Z,2.20
2022-09-16T05:18:58.199Z,2.25
2022-09-16T05:20:01.214Z,2.85
2022-09-16T05:21:07.951Z,2.75
2022-09-16T05:22:11.152Z,2.35
2022-09-16T05:23:14.151Z,1.98
2022-09-16T05:24:17.287Z,1.90
2022-09-16T05:25:20.221Z,2.08
2022-09-16T05:26:26.686Z,1.90
2022-09-16T05:27:32.105Z,2.05
2022-09-16T05:28:36.342Z,2.22
2022-09-16T05:29:39.215Z,2.45
2022-09-16T05:30:42.556Z,2.33
2022-09-16T05:31:49.341Z,1.98
2022-09-16T05:32:55.389Z,2.47
2022-09-16T05:33:59.598Z,1.90
2022-09-16T05:35:02.428Z,1.80
2022-09-16T05:36:13.824Z,1.75
2022-09-16T05:37:20.007Z,1.92
2022-09-16T05:38:22.766Z,1.83
2022-09-16T05:39:26.278Z,1.75
2022-09-16T05:40:29.829Z,1.73
2022-09-16T05:41:33.230Z,2.00
2022-09-16T05:42:36.081Z,2.08
2022-09-16T05:43:39.603Z,2.00
2022-09-16T05:44:42.566Z,2.15
2022-09-16T05:45:55.729Z,2.88
2022-09-16T05:46:58.794Z,1.55
2022-09-16T05:48:02.329Z,1.73
2022-09-16T05:49:05.316Z,1.58
2022-09-16T05:50:08.684Z,1.80
2022-09-16T05:51:20.667Z,1.52
2022-09-16T05:52:25.581Z,1.25
2022-09-16T05:53:30.811Z,1.17
2022-09-16T05:54:33.623Z,1.58
2022-09-16T05:55:36.540Z,1.55
2022-09-16T05:56:40.120Z,1.73
2022-09-16T05:57:43.021Z,1.55
2022-09-16T05:58:46.925Z,1.60
2022-09-16T05:59:49.975Z,1.35
2022-09-16T06:01:02.164Z,1.58
2022-09-16T06:02:05.154Z,1.27
2022-09-16T06:03:08.789Z,1.70
2022-09-16T06:04:14.978Z,1.55
2022-09-16T06:05:18.074Z,1.10
2022-09-16T06:06:39.777Z,1.50
2022-09-16T06:07:42.627Z,1.13
2022-09-16T06:08:45.688Z,1.50
2022-09-16T06:09:48.783Z,1.10
2022-09-16T06:10:51.667Z,1.50
2022-09-16T06:12:01.462Z,1.50
2022-09-16T06:14:08.703Z,0.95
2022-09-16T06:15:11.823Z,1.23
2022-09-16T06:16:14.786Z,1.33
2022-09-16T06:17:17.922Z,1.25
2022-09-16T06:18:22.632Z,1.08
2022-09-16T06:19:25.610Z,1.38
2022-09-16T06:20:28.790Z,1.30
2022-09-16T06:21:32.000Z,1.10
2022-09-16T06:22:35.587Z,1.10
2022-09-16T06:23:40.328Z,1.10
2022-09-16T06:24:43.165Z,1.00
2022-09-16T06:25:46.929Z,0.88
2022-09-16T06:26:50.119Z,1.25
2022-09-16T06:27:52.978Z,0.70
2022-09-16T06:28:56.294Z,0.88
2022-09-16T06:29:59.236Z,1.08
2022-09-16T06:31:11.039Z,1.30
2022-09-16T06:32:14.045Z,1.15
2022-09-16T06:33:17.036Z,1.13
2022-09-16T06:34:19.963Z,1.15
2022-09-16T06:35:22.937Z,1.50
2022-09-16T06:36:32.554Z,1.02
2022-09-16T06:37:35.476Z,1.00
2022-09-16T06:38:39.209Z,1.00
2022-09-16T06:39:42.727Z,1.42
2022-09-16T06:40:45.620Z,0.77
2022-09-16T06:41:49.208Z,0.90
2022-09-16T06:42:59.977Z,1.10
2022-09-16T06:44:03.089Z,0.82
2022-09-16T06:45:07.025Z,1.20
2022-09-16T06:46:22.964Z,1.38
2022-09-16T06:47:25.941Z,0.75
2022-09-16T06:48:32.117Z,0.90
2022-09-16T06:49:35.232Z,0.73
2022-09-16T06:50:38.389Z,1.00
2022-09-16T06:51:41.586Z,1.17
2022-09-16T06:52:44.972Z,1.20
2022-09-16T06:53:47.990Z,1.35
2022-09-16T06:54:51.120Z,1.20
2022-09-16T06:55:54.492Z,1.00
2022-09-16T06:56:57.674Z,0.98
2022-09-16T06:58:00.811Z,1.10
2022-09-16T06:59:04.219Z,0.70
2022-09-16T07:00:08.133Z,1.00
2022-09-16T07:01:14.507Z,1.00
2022-09-16T07:02:18.397Z,1.30
2022-09-16T07:03:21.216Z,1.20
2022-09-16T07:04:24.337Z,1.08
2022-09-16T07:05:27.581Z,1.17
2022-09-16T07:06:58.279Z,0.73
2022-09-16T07:07:53.968Z,1.40
2022-09-16T07:08:56.972Z,1.10
2022-09-16T07:09:59.872Z,1.25
2022-09-16T07:11:24.395Z,1.50
2022-09-16T07:12:29.034Z,1.00
2022-09-16T07:13:32.444Z,1.17
2022-09-16T07:14:35.495Z,1.42
2022-09-16T07:15:56.262Z,0.95
2022-09-16T07:17:02.347Z,0.98
2022-09-16T07:18:05.562Z,0.93
2022-09-16T07:19:08.538Z,0.93
2022-09-16T07:20:11.471Z,0.90
2022-09-16T07:21:19.319Z,0.75
2022-09-16T07:22:22.186Z,1.33
2022-09-16T07:23:25.356Z,1.20
2022-09-16T07:24:28.353Z,1.20
2022-09-16T07:25:35.714Z,1.17
2022-09-16T07:26:41.253Z,1.00
2022-09-16T07:27:44.267Z,0.90
2022-09-16T07:28:49.408Z,1.00
2022-09-16T07:29:54.087Z,0.98
2022-09-16T07:31:01.267Z,1.08
2022-09-16T07:32:04.331Z,1.10
2022-09-16T07:33:07.150Z,1.02
2022-09-16T07:34:12.663Z,1.33
2022-09-16T07:35:15.986Z,0.93
2022-09-16T07:36:23.643Z,0.95
2022-09-16T07:37:28.697Z,1.20
2022-09-16T07:38:32.395Z,1.45
2022-09-16T07:39:35.557Z,0.85
2022-09-16T07:40:40.877Z,0.90
2022-09-16T07:41:46.579Z,1.27
2022-09-16T07:42:49.522Z,1.02
2022-09-16T07:43:55.677Z,1.05
2022-09-16T07:44:58.525Z,1.10
2022-09-16T07:46:02.135Z,0.90
2022-09-16T07:47:05.414Z,0.73
2022-09-16T07:48:08.210Z,0.90
2022-09-16T07:49:14.645Z,0.98
2022-09-16T07:50:17.972Z,1.02
2022-09-16T07:51:24.529Z,1.00
2022-09-16T07:52:29.430Z,0.90
2022-09-16T07:53:33.646Z,0.90
2022-09-16T07:54:36.725Z,0.88
2022-09-16T07:55:39.589Z,0.63
2022-09-16T07:56:44.519Z,0.80
2022-09-16T07:57:47.341Z,1.10
2022-09-16T07:58:54.376Z,0.70
2022-09-16T07:59:57.974Z,1.13
2022-09-16T08:01:04.837Z,1.20
2022-09-16T08:02:09.446Z,0.90
2022-09-16T08:03:12.506Z,1.20
2022-09-16T08:04:16.371Z,1.00
2022-09-16T08:05:19.377Z,1.35
2022-09-16T08:06:27.165Z,0.98
2022-09-16T08:07:30.204Z,1.08
2022-09-16T08:08:34.517Z,1.13
2022-09-16T08:09:45.103Z,1.33
2022-09-16T08:10:58.588Z,1.23
2022-09-16T08:12:04.756Z,1.52
2022-09-16T08:13:08.705Z,1.00
2022-09-16T08:14:11.556Z,1.05
2022-09-16T08:15:15.115Z,1.15
2022-09-16T08:16:21.258Z,1.13
2022-09-16T08:17:24.276Z,0.90
2022-09-16T08:18:27.621Z,1.13
2022-09-16T08:19:30.953Z,1.15
2022-09-16T08:20:33.790Z,1.10
2022-09-16T08:21:36.792Z,0.80
2022-09-16T08:22:39.804Z,0.80
2022-09-16T08:23:43.636Z,1.33
2022-09-16T08:24:46.578Z,0.95
2022-09-16T08:25:58.858Z,0.82
2022-09-16T08:27:02.071Z,1.02
2022-09-16T08:28:04.954Z,0.85
2022-09-16T08:29:09.815Z,0.95
2022-09-16T08:30:13.267Z,0.80
2022-09-16T08:31:18.284Z,1.05
2022-09-16T08:32:21.830Z,1.00
2022-09-16T08:33:26.281Z,0.77
2022-09-16T08:34:29.074Z,0.90
2022-09-16T08:35:32.129Z,0.60
2022-09-16T08:36:35.050Z,0.75
2022-09-16T08:37:38.067Z,0.95
2022-09-16T08:38:43.952Z,0.85
2022-09-16T08:39:49.660Z,1.10
2022-09-16T08:41:05.180Z,1.45
2022-09-16T08:42:45.164Z,1.08
2022-09-16T08:45:31.435Z,0.90
2022-09-16T08:46:40.115Z,0.75
2022-09-16T08:48:39.979Z,0.70
2022-09-16T08:49:51.168Z,1.05
2022-09-16T08:50:55.030Z,1.02
2022-09-16T08:52:02.007Z,1.08
2022-09-16T08:53:14.910Z,1.17
2022-09-16T08:54:49.940Z,1.13
2022-09-16T08:55:53.703Z,1.08
2022-09-16T08:57:03.427Z,1.02
2022-09-16T08:58:13.735Z,1.33
2022-09-16T08:59:25.092Z,0.70
2022-09-16T09:00:28.434Z,1.10
2022-09-16T09:02:12.972Z,1.02
2022-09-16T09:03:37.811Z,1.10
2022-09-16T09:04:41.013Z,0.77
2022-09-16T09:05:51.730Z,1.23
2022-09-16T09:07:08.132Z,0.98
2022-09-16T09:08:22.327Z,1.20
2022-09-16T09:09:40.323Z,1.42
2022-09-16T09:10:52.012Z,1.20
2022-09-16T09:12:11.955Z,0.70
2022-09-16T09:13:33.743Z,0.93
2022-09-16T09:15:28.017Z,1.25
2022-09-16T09:17:02.307Z,1.05
2022-09-16T09:18:33.952Z,0.73
2022-09-16T09:20:07.089Z,1.00
2022-09-16T09:21:32.797Z,0.73
2022-09-16T09:22:59.996Z,1.00
2022-09-16T09:24:17.835Z,0.90
2022-09-16T09:25:56.951Z,0.65
2022-09-16T09:27:31.011Z,1.10
2022-09-16T09:28:39.347Z,1.00
2022-09-16T09:29:57.055Z,0.90
2022-09-16T09:31:18.634Z,0.80
2022-09-16T09:32:59.151Z,0.93
2022-09-16T09:36:05.518Z,0.95
2022-09-16T09:38:02.942Z,1.00
2022-09-16T09:39:16.461Z,0.95
2022-09-16T09:40:23.646Z,0.80
2022-09-16T09:41:54.724Z,0.60
2022-09-16T09:43:19.309Z,0.68
2022-09-16T09:44:52.804Z,0.93
2022-09-16T09:46:31.655Z,0.75
2022-09-16T09:47:44.074Z,0.90
2022-09-16T09:49:27.851Z,0.50
2022-09-16T09:50:36.448Z,0.70
2022-09-16T09:51:45.816Z,0.63
2022-09-16T09:53:11.193Z,0.98
2022-09-16T09:54:30.466Z,0.80
2022-09-16T09:55:35.459Z,0.93
2022-09-16T09:56:45.757Z,0.75
2022-09-16T09:58:19.258Z,1.10
2022-09-16T09:59:45.642Z,0.80
2022-09-16T10:00:48.714Z,0.70
2022-09-16T10:02:00.562Z,0.88
2022-09-16T10:03:12.492Z,0.98
2022-09-16T10:04:16.306Z,0.77
2022-09-16T10:05:27.492Z,0.63
2022-09-16T10:06:35.721Z,0.90
2022-09-16T10:07:39.327Z,0.55
2022-09-16T10:08:54.340Z,0.90
2022-09-16T10:10:04.044Z,0.90
2022-09-16T10:11:21.782Z,0.60
2022-09-16T10:12:35.122Z,0.80
2022-09-16T10:13:53.759Z,0.70
2022-09-16T10:14:57.028Z,0.75
2022-09-16T10:16:21.570Z,0.85
2022-09-16T10:17:27.789Z,0.50
2022-09-16T10:18:33.576Z,0.93
2022-09-16T10:19:58.076Z,0.73
2022-09-16T10:21:07.794Z,0.82
2022-09-16T10:22:19.205Z,0.70
2022-09-16T10:23:29.782Z,0.90
2022-09-16T10:24:43.343Z,0.70
2022-09-16T10:25:46.886Z,0.80
2022-09-16T10:26:49.979Z,0.80
2022-09-16T10:28:02.763Z,1.17
2022-09-16T10:29:19.616Z,0.88
2022-09-16T10:31:34.245Z,0.73
2022-09-16T10:33:00.158Z,0.85
2022-09-16T10:34:21.971Z,0.60
2022-09-16T10:35:34.722Z,0.90
2022-09-16T10:36:38.139Z,0.80
2022-09-16T10:38:16.047Z,0.70
2022-09-16T10:39:27.431Z,1.10
2022-09-16T10:40:32.064Z,0.85
2022-09-16T10:41:45.857Z,0.98
2022-09-16T10:42:50.766Z,0.65
2022-09-16T10:44:26.719Z,0.70
2022-09-16T10:45:35.106Z,0.73
2022-09-16T10:46:38.554Z,0.88
2022-09-16T10:47:48.650Z,0.50
2022-09-16T10:48:54.303Z,0.82
2022-09-16T10:50:05.113Z,0.70
2022-09-16T10:51:31.125Z,0.75
2022-09-16T10:52:47.008Z,0.55
2022-09-16T10:54:02.627Z,0.68
2022-09-16T10:55:27.761Z,0.70
2022-09-16T10:56:35.359Z,0.57
2022-09-16T10:57:41.943Z,0.70
2022-09-16T10:58:45.067Z,0.73
2022-09-16T11:00:08.986Z,0.60
2022-09-16T11:01:45.460Z,0.60
2022-09-16T11:03:23.754Z,0.63
2022-09-16T11:05:06.095Z,0.75
2022-09-16T11:06:40.401Z,0.80
2022-09-16T11:07:58.749Z,0.80
2022-09-16T11:09:41.183Z,0.65
2022-09-16T11:11:20.964Z,0.65
2022-09-16T11:12:50.594Z,0.73
2022-09-16T11:14:36.213Z,0.70
2022-09-16T11:16:16.267Z,0.75
2022-09-16T11:17:40.449Z,0.65
2022-09-16T11:19:06.222Z,0.63
2022-09-16T11:21:06.192Z,0.73
2022-09-16T11:22:38.236Z,0.57
2022-09-16T11:24:16.899Z,0.55
2022-09-16T11:26:02.646Z,0.80
2022-09-16T11:27:08.317Z,0.63
2022-09-16T11:28:26.008Z,0.43
2022-09-16T11:29:48.008Z,0.57
2022-09-16T11:31:17.906Z,0.60
2022-09-16T11:34:56.121Z,0.50
2022-09-16T11:36:32.624Z,0.80
2022-09-16T11:37:56.203Z,0.40
2022-09-16T11:39:46.669Z,0.50
2022-09-16T11:41:49.208Z,0.77
2022-09-16T11:43:19.785Z,0.63
2022-09-16T11:46:05.492Z,0.98
2022-09-16T11:47:48.503Z,0.80
2022-09-16T11:49:21.813Z,0.60
2022-09-16T11:51:04.299Z,0.73
2022-09-16T11:52:30.642Z,0.70
2022-09-16T11:54:19.985Z,1.17
2022-09-16T11:55:50.647Z,0.52
2022-09-16T11:58:38.378Z,0.60
2022-09-16T12:01:03.968Z,1.10
2022-09-16T12:02:42.216Z,0.75
2022-09-16T12:03:59.094Z,0.98
2022-09-16T12:05:16.178Z,0.98
2022-09-16T12:06:25.126Z,1.25
2022-09-16T12:08:02.469Z,0.95
2022-09-16T12:09:20.491Z,0.77
2022-09-16T12:11:04.084Z,0.88
2022-09-16T12:12:18.773Z,0.73
2022-09-16T12:13:40.584Z,1.10
2022-09-16T12:14:55.035Z,1.10
2022-09-16T12:16:14.802Z,1.02
2022-09-16T12:17:35.820Z,0.98
2022-09-16T12:18:51.678Z,0.77
2022-09-16T12:20:13.718Z,1.25
2022-09-16T12:21:31.154Z,1.08
2022-09-16T12:22:49.163Z,1.20
2022-09-16T12:24:04.472Z,1.17
2022-09-16T12:25:17.580Z,1.10
2022-09-16T12:26:26.440Z,0.88
2022-09-16T12:27:52.468Z,1.77
2022-09-16T12:29:37.659Z,0.80
2022-09-16T12:30:47.688Z,0.57
2022-09-16T12:31:59.437Z,0.80
2022-09-16T12:33:24.611Z,0.70
2022-09-16T12:34:49.583Z,0.80
2022-09-16T12:36:06.960Z,0.70
2022-09-16T12:37:36.566Z,0.70
2022-09-16T12:38:40.337Z,0.82
2022-09-16T12:39:43.795Z,0.80
2022-09-16T12:41:17.186Z,0.70
2022-09-16T12:43:02.609Z,0.68
2022-09-16T12:44:54.045Z,0.68
2022-09-16T12:46:37.133Z,0.98
2022-09-16T12:48:32.666Z,0.80
2022-09-16T12:50:19.772Z,0.82
2022-09-16T12:52:09.738Z,0.98
2022-09-16T12:53:40.980Z,0.50
2022-09-16T12:55:09.261Z,0.60
2022-09-16T12:56:27.391Z,0.98
2022-09-16T12:57:39.956Z,0.68
2022-09-16T12:59:13.611Z,0.70
2022-09-16T13:00:27.407Z,0.77
2022-09-16T13:01:42.791Z,0.70
2022-09-16T13:02:59.556Z,0.80
2022-09-16T13:04:22.621Z,0.73
2022-09-16T13:05:39.427Z,0.70
2022-09-16T13:06:52.018Z,0.85
2022-09-16T13:08:00.809Z,0.65
2022-09-16T13:09:38.440Z,0.90
2022-09-16T13:11:19.967Z,0.60
2022-09-16T13:12:39.309Z,0.50
2022-09-16T13:13:56.749Z,0.50
2022-09-16T13:15:05.701Z,0.63
2022-09-16T13:16:09.719Z,0.80
2022-09-16T13:17:13.009Z,0.60
2022-09-16T13:18:18.574Z,0.60
2022-09-16T13:19:53.166Z,0.90
2022-09-16T13:21:05.740Z,0.60
2022-09-16T13:22:15.538Z,0.38
2022-09-16T13:23:34.179Z,0.57
2022-09-16T13:24:42.580Z,0.50
2022-09-16T13:26:08.506Z,0.63
2022-09-16T13:27:29.844Z,0.40
2022-09-16T13:28:32.587Z,1.17
2022-09-16T13:29:38.384Z,0.60
2022-09-16T13:30:41.588Z,0.40
2022-09-16T13:31:49.262Z,0.80
2022-09-16T13:32:52.213Z,0.73
2022-09-16T13:33:57.680Z,0.70
2022-09-16T13:35:05.530Z,0.60
2022-09-16T13:36:20.192Z,0.60
2022-09-16T13:37:27.210Z,0.50
2022-09-16T13:38:39.925Z,0.60
2022-09-16T13:39:44.425Z,0.55
2022-09-16T13:41:13.426Z,0.50
2022-09-16T13:42:21.813Z,0.60
2022-09-16T13:43:43.051Z,0.88
2022-09-16T13:44:46.142Z,0.80
2022-09-16T13:45:49.076Z,0.40
2022-09-16T13:46:52.328Z,0.75
2022-09-16T13:47:55.363Z,0.95
2022-09-16T13:49:05.164Z,0.57
2022-09-16T13:50:16.291Z,0.70
2022-09-16T13:51:22.443Z,0.50
2022-09-16T13:52:30.778Z,0.80
2022-09-16T13:53:37.543Z,0.50
2022-09-16T13:55:17.079Z,0.80
2022-09-16T13:56:57.166Z,0.60
2022-09-16T13:58:30.932Z,0.60
2022-09-16T14:01:42.196Z,0.65
2022-09-16T14:03:21.378Z,0.75
2022-09-16T14:04:41.233Z,0.60
2022-09-16T14:06:12.709Z,0.60
2022-09-16T14:07:31.682Z,0.47
2022-09-16T14:09:16.698Z,0.60
2022-09-16T14:11:08.847Z,0.45
2022-09-16T14:12:33.071Z,0.60
2022-09-16T14:13:50.549Z,0.55
2022-09-16T14:14:53.702Z,0.65
2022-09-16T14:15:59.301Z,0.70
2022-09-16T14:17:19.485Z,0.43
2022-09-16T14:18:29.153Z,0.50
2022-09-16T14:19:38.570Z,0.47
2022-09-16T14:21:19.539Z,0.63
2022-09-16T14:22:25.662Z,0.60
2022-09-16T14:23:30.128Z,0.45
2022-09-16T14:24:42.177Z,1.20
2022-09-16T14:25:45.177Z,0.70
2022-09-16T14:26:57.049Z,0.95
2022-09-16T14:28:18.607Z,0.75
2022-09-16T14:29:24.423Z,0.70
2022-09-16T14:30:27.297Z,0.70
2022-09-16T14:31:33.743Z,0.52
2022-09-16T14:32:38.061Z,0.63
2022-09-16T14:33:56.400Z,0.90
2022-09-16T14:35:09.392Z,0.90
2022-09-16T14:36:32.464Z,0.80
2022-09-16T14:37:37.358Z,0.90
2022-09-16T14:38:59.238Z,0.55
2022-09-16T14:40:14.218Z,0.50
2022-09-16T14:41:41.410Z,1.20
2022-09-16T14:42:59.675Z,0.70
2022-09-16T14:44:18.697Z,0.60
2022-09-16T14:45:22.373Z,0.65
2022-09-16T14:46:26.774Z,0.68
2022-09-16T14:47:51.002Z,0.75
2022-09-16T14:48:55.090Z,0.65
2022-09-16T14:50:20.244Z,0.60
2022-09-16T14:51:27.451Z,0.40
2022-09-16T14:52:35.331Z,0.73
2022-09-16T14:53:38.689Z,0.60
2022-09-16T14:54:44.910Z,0.80
2022-09-16T14:55:49.912Z,0.90
2022-09-16T14:57:06.378Z,0.70
2022-09-16T14:58:11.034Z,0.45
2022-09-16T14:59:15.563Z,0.82
2022-09-16T15:00:24.873Z,0.40
2022-09-16T15:01:28.390Z,0.80
2022-09-16T15:02:46.373Z,0.65
2022-09-16T15:04:01.961Z,0.65
2022-09-16T15:05:33.412Z,0.90
2022-09-16T15:06:47.314Z,0.65
2022-09-16T15:08:12.791Z,0.50
2022-09-16T15:09:36.967Z,0.70
2022-09-16T15:10:55.465Z,0.50
2022-09-16T15:12:01.428Z,0.60
2022-09-16T15:13:16.866Z,0.60
2022-09-16T15:14:20.495Z,0.95
2022-09-16T15:15:27.999Z,0.70
2022-09-16T15:16:32.149Z,0.60
2022-09-16T15:17:35.362Z,0.68
2022-09-16T15:19:04.433Z,1.02
2022-09-16T15:20:22.588Z,0.60
2022-09-16T15:21:33.203Z,0.60
2022-09-16T15:23:53.463Z,0.40
2022-09-16T15:24:59.486Z,0.70
2022-09-16T15:26:15.307Z,0.90
2022-09-16T15:27:24.787Z,0.60
2022-09-16T15:28:27.792Z,0.73
2022-09-16T15:29:35.337Z,0.60
2022-09-16T15:30:50.706Z,0.88
2022-09-16T15:31:53.762Z,0.70
2022-09-16T15:32:56.705Z,0.70
2022-09-16T15:34:03.637Z,0.70
2022-09-16T15:35:18.118Z,0.50
2022-09-16T15:36:41.919Z,0.82
2022-09-16T15:37:45.792Z,0.30
2022-09-16T15:38:58.216Z,0.50
2022-09-16T15:40:31.871Z,0.77
2022-09-16T15:41:35.104Z,0.52
2022-09-16T15:42:38.503Z,0.70
2022-09-16T15:43:45.665Z,0.80
2022-09-16T15:44:54.349Z,0.40
2022-09-16T15:46:03.822Z,0.73
2022-09-16T15:47:06.999Z,0.73
2022-09-16T15:48:19.651Z,0.45
2022-09-16T15:49:26.214Z,0.60
2022-09-16T15:50:40.980Z,0.82
2022-09-16T15:51:49.499Z,0.68
2022-09-16T15:53:03.280Z,0.70
2022-09-16T15:54:31.259Z,0.60
2022-09-16T15:55:40.221Z,0.50
2022-09-16T15:57:02.625Z,1.08
2022-09-16T15:58:24.371Z,0.60
2022-09-16T15:59:55.647Z,0.63
2022-09-16T16:01:11.824Z,0.47
2022-09-16T16:02:37.780Z,0.65
2022-09-16T16:03:58.101Z,0.82
2022-09-16T16:05:12.256Z,0.45
2022-09-16T16:06:15.122Z,0.70
2022-09-16T16:07:49.301Z,0.50
2022-09-16T16:08:54.989Z,1.10
2022-09-16T16:10:15.076Z,0.52
2022-09-16T16:11:21.085Z,0.82
2022-09-16T16:12:24.161Z,0.70
2022-09-16T16:13:27.732Z,0.90
2022-09-16T16:14:32.596Z,0.73
2022-09-16T16:15:39.028Z,0.75
2022-09-16T16:17:01.491Z,0.60
2022-09-16T16:18:07.811Z,0.88
2022-09-16T16:19:11.538Z,0.70
2022-09-16T16:20:16.137Z,0.80
2022-09-16T16:21:19.029Z,0.80
2022-09-16T16:22:24.115Z,0.95
2022-09-16T16:23:28.225Z,0.60
2022-09-16T16:24:31.385Z,0.82